createdAt,value
2023-05-08T00:01:27.075Z,66.52
2023-05-08T00:03:56.161Z,66.73
2023-05-08T00:06:24.532Z,67.21
2023-05-08T00:08:53.133Z,67.21
2023-05-08T00:11:23.544Z,67.18
2023-05-08T00:13:53.339Z,67.33
2023-05-08T00:16:21.827Z,67.91
2023-05-08T00:18:50.697Z,67.80
2023-05-08T00:21:19.226Z,67.89
2023-05-08T00:23:47.744Z,68.43
2023-05-08T00:26:16.700Z,67.55
2023-05-08T00:28:46.427Z,67.10
2023-05-08T00:31:15.467Z,66.97
2023-05-08T00:33:43.774Z,67.84
2023-05-08T00:36:12.593Z,67.26
2023-05-08T00:38:41.274Z,67.85
2023-05-08T00:41:09.752Z,67.19
2023-05-08T00:43:40.198Z,67.80
2023-05-08T00:46:12.089Z,68.32
2023-05-08T00:48:41.920Z,68.29
2023-05-08T00:51:11.539Z,67.54
2023-05-08T00:53:45.832Z,68.31
2023-05-08T00:56:16.044Z,68.51
2023-05-08T00:58:46.381Z,67.72
2023-05-08T01:01:17.024Z,68.15
2023-05-08T01:03:46.588Z,68.31
2023-05-08T01:06:15.001Z,68.72
2023-05-08T01:08:45.473Z,69.02
2023-05-08T01:11:20.080Z,69.05
2023-05-08T01:13:59.463Z,69.11
2023-05-08T01:16:40.448Z,68.46
2023-05-08T01:19:33.811Z,68.85
2023-05-08T01:22:13.597Z,68.56
2023-05-08T01:25:06.867Z,69.26
2023-05-08T01:28:09.956Z,69.15
2023-05-08T01:31:04.153Z,68.68
2023-05-08T01:33:37.392Z,68.66
2023-05-08T01:36:18.757Z,68.59
2023-05-08T01:38:55.785Z,67.77
2023-05-08T01:41:29.120Z,68.30
2023-05-08T01:44:11.875Z,67.85
2023-05-08T01:46:40.471Z,68.66
2023-05-08T01:49:18.844Z,69.18
2023-05-08T01:51:58.344Z,68.82
2023-05-08T01:54:30.940Z,68.27
2023-05-08T01:57:03.427Z,68.11
2023-05-08T01:59:35.733Z,68.25
2023-05-08T02:02:05.140Z,67.95
2023-05-08T02:04:38.520Z,68.69
2023-05-08T02:07:08.211Z,68.39
2023-05-08T02:09:36.982Z,68.69
2023-05-08T02:12:08.625Z,68.43
2023-05-08T02:14:38.887Z,67.85
2023-05-08T02:17:10.739Z,68.06
2023-05-08T02:19:42.742Z,67.64
2023-05-08T02:22:12.539Z,68.61
2023-05-08T02:24:46.236Z,69.04
2023-05-08T02:27:16.783Z,69.47
2023-05-08T02:29:46.020Z,70.04
2023-05-08T02:32:16.822Z,69.89
2023-05-08T02:34:58.882Z,70.48
2023-05-08T02:37:32.006Z,70.31
2023-05-08T02:40:00.723Z,70.48
2023-05-08T02:42:29.559Z,69.98
2023-05-08T02:44:57.713Z,70.50
2023-05-08T02:47:31.592Z,70.62
2023-05-08T02:50:11.591Z,70.59
2023-05-08T02:52:46.413Z,70.45
2023-05-08T02:55:23.898Z,70.54
2023-05-08T02:58:07.162Z,70.57
2023-05-08T03:00:43.661Z,70.37
2023-05-08T03:03:19.951Z,69.87
2023-05-08T03:05:53.914Z,69.99
2023-05-08T03:08:27.779Z,70.46
2023-05-08T03:11:00.572Z,70.56
2023-05-08T03:13:34.086Z,70.43
2023-05-08T03:16:05.742Z,70.68
2023-05-08T03:18:37.996Z,70.54
2023-05-08T03:21:11.120Z,70.34
2023-05-08T03:23:42.472Z,70.24
2023-05-08T03:26:13.559Z,70.11
2023-05-08T03:28:42.425Z,70.83
2023-05-08T03:31:13.926Z,70.95
2023-05-08T03:33:45.494Z,71.04
2023-05-08T03:36:16.108Z,70.93
2023-05-08T03:38:45.621Z,70.57
2023-05-08T03:41:14.875Z,71.19
2023-05-08T03:43:43.579Z,70.83
2023-05-08T03:46:13.273Z,70.53
2023-05-08T03:48:42.745Z,71.14
2023-05-08T03:51:12.220Z,71.38
2023-05-08T03:53:42.987Z,71.64
2023-05-08T03:56:12.074Z,71.39
2023-05-08T03:58:46.848Z,70.63
2023-05-08T04:01:25.017Z,71.44
2023-05-08T04:04:03.492Z,69.62
2023-05-08T04:06:48.500Z,70.13
2023-05-08T04:09:26.593Z,70.44
2023-05-08T04:12:04.318Z,70.65
2023-05-08T04:14:42.914Z,69.22
2023-05-08T04:17:16.444Z,68.16
2023-05-08T04:19:52.168Z,68.73
2023-05-08T04:22:24.346Z,69.42
2023-05-08T04:25:00.395Z,69.44
2023-05-08T04:27:30.777Z,68.13
2023-05-08T04:29:59.791Z,69.11
2023-05-08T04:32:30.391Z,69.11
2023-05-08T04:35:00.582Z,68.12
2023-05-08T04:37:32.034Z,67.39
2023-05-08T04:40:02.610Z,66.13
2023-05-08T04:42:31.488Z,66.68
2023-05-08T04:45:00.717Z,66.93
2023-05-08T04:47:29.806Z,67.09
2023-05-08T04:49:59.545Z,65.12
2023-05-08T04:52:30.576Z,66.17
2023-05-08T04:55:00.157Z,65.29
2023-05-08T04:57:31.518Z,65.48
2023-05-08T05:00:00.793Z,64.41
2023-05-08T05:02:42.506Z,65.85
2023-05-08T05:05:14.632Z,64.80
2023-05-08T05:07:48.263Z,63.38
2023-05-08T05:10:21.828Z,62.48
2023-05-08T05:12:56.756Z,64.97
2023-05-08T05:15:29.033Z,63.95
2023-05-08T05:18:03.716Z,65.87
2023-05-08T05:20:36.678Z,63.65
2023-05-08T05:23:16.625Z,62.41
2023-05-08T05:25:49.580Z,61.43
2023-05-08T05:28:28.795Z,64.60
2023-05-08T05:31:01.357Z,66.05
2023-05-08T05:33:37.091Z,64.56
2023-05-08T05:36:10.068Z,64.30
2023-05-08T05:38:47.857Z,64.29
2023-05-08T05:41:20.588Z,62.78
2023-05-08T05:43:53.574Z,60.83
2023-05-08T05:46:40.971Z,61.28
2023-05-08T05:49:19.169Z,62.98
2023-05-08T05:51:52.159Z,62.96
2023-05-08T05:54:24.981Z,60.44
2023-05-08T05:56:56.938Z,61.26
2023-05-08T05:59:31.636Z,60.76
2023-05-08T06:02:00.381Z,59.31
2023-05-08T06:04:29.464Z,58.98
2023-05-08T06:06:59.018Z,59.89
2023-05-08T06:09:32.141Z,56.12
2023-05-08T06:12:07.043Z,56.75
2023-05-08T06:14:37.270Z,59.47
2023-05-08T06:17:06.122Z,59.25
2023-05-08T06:19:35.357Z,57.17
2023-05-08T06:22:07.445Z,55.46
2023-05-08T06:24:42.055Z,57.35
2023-05-08T06:27:19.782Z,56.93
2023-05-08T06:29:52.366Z,55.25
2023-05-08T06:32:30.411Z,54.46
2023-05-08T06:35:14.525Z,55.64
2023-05-08T06:38:04.775Z,52.99
2023-05-08T06:40:40.753Z,50.39
2023-05-08T06:43:14.375Z,52.18
2023-05-08T06:45:53.989Z,48.86
2023-05-08T06:48:26.079Z,48.68
2023-05-08T06:51:01.793Z,50.43
2023-05-08T06:53:34.106Z,51.64
2023-05-08T06:59:27.106Z,48.99
2023-05-08T07:04:59.618Z,48.48
2023-05-08T07:07:29.966Z,44.64
2023-05-08T07:10:07.800Z,50.01
2023-05-08T07:12:40.088Z,49.75
2023-05-08T07:16:10.338Z,46.96
2023-05-08T07:18:50.679Z,49.52
2023-05-08T07:22:00.740Z,50.27
2023-05-08T07:31:38.862Z,43.17
2023-05-08T07:34:16.836Z,47.00
2023-05-08T07:36:48.081Z,44.12
2023-05-08T07:39:34.737Z,48.83
2023-05-08T07:42:11.676Z,48.75
2023-05-08T07:45:11.098Z,45.37
2023-05-08T07:48:03.958Z,49.35
2023-05-08T07:51:00.253Z,48.87
2023-05-08T07:53:48.093Z,43.98
2023-05-08T07:56:20.260Z,47.79
2023-05-08T07:58:49.889Z,46.28
2023-05-08T08:01:19.160Z,44.49
2023-05-08T08:03:51.372Z,42.95
2023-05-08T08:06:25.131Z,41.48
2023-05-08T08:11:41.995Z,38.81
2023-05-08T08:14:15.800Z,37.38
2023-05-08T08:16:55.397Z,37.27
2023-05-08T08:19:27.201Z,37.70
2023-05-08T08:22:27.364Z,35.47
2023-05-08T08:40:01.155Z,32.79
2023-05-08T08:42:39.292Z,30.76
2023-05-08T08:45:55.580Z,33.26
2023-05-08T08:51:53.400Z,31.49
2023-05-08T08:54:29.451Z,27.87
2023-05-08T08:57:09.153Z,27.69
2023-05-08T08:59:46.994Z,33.76
2023-05-08T09:02:18.765Z,33.33
2023-05-08T09:04:54.983Z,29.85
2023-05-08T09:07:27.756Z,30.94
2023-05-08T09:10:21.778Z,31.43
2023-05-08T09:13:00.534Z,33.32
2023-05-08T09:15:34.918Z,33.78
2023-05-08T09:18:05.335Z,39.50
2023-05-08T09:20:37.882Z,38.77
2023-05-08T09:23:12.099Z,37.60
2023-05-08T09:25:44.713Z,34.35
2023-05-08T09:28:28.963Z,35.43
2023-05-08T09:31:03.562Z,37.20
2023-05-08T09:33:32.957Z,37.18
2023-05-08T09:36:04.846Z,37.59
2023-05-08T09:38:47.633Z,34.87
2023-05-08T09:41:20.139Z,34.13
2023-05-08T09:44:04.569Z,33.13
2023-05-08T09:46:39.529Z,36.21
2023-05-08T09:49:25.296Z,36.45
2023-05-08T09:52:28.715Z,33.25
2023-05-08T09:55:13.571Z,32.06
2023-05-08T09:57:58.610Z,33.41
2023-05-08T10:00:51.530Z,35.64
2023-05-08T10:03:49.946Z,34.47
2023-05-08T10:06:44.366Z,35.13
2023-05-08T10:09:14.485Z,34.41
2023-05-08T10:12:10.706Z,33.34
2023-05-08T10:14:46.910Z,35.12
2023-05-08T10:17:36.406Z,34.93
2023-05-08T10:20:12.380Z,33.18
2023-05-08T10:23:01.380Z,33.05
2023-05-08T10:25:47.770Z,33.67
2023-05-08T10:28:30.908Z,34.78
2023-05-08T10:31:30.833Z,32.69
2023-05-08T10:34:04.409Z,30.85
2023-05-08T10:36:35.761Z,32.65
2023-05-08T10:39:08.181Z,34.24
2023-05-08T10:41:38.379Z,31.06
2023-05-08T10:44:08.762Z,32.58
2023-05-08T10:46:47.403Z,30.80
2023-05-08T10:49:26.612Z,32.76
2023-05-08T10:52:08.875Z,31.19
2023-05-08T10:54:50.866Z,32.35
2023-05-08T10:57:19.364Z,34.11
2023-05-08T10:59:49.320Z,35.04
2023-05-08T11:02:17.752Z,33.13
2023-05-08T11:04:50.255Z,33.81
2023-05-08T11:07:18.812Z,33.06
2023-05-08T11:09:48.709Z,33.80
2023-05-08T11:12:25.168Z,34.83
2023-05-08T11:15:03.173Z,35.56
2023-05-08T11:17:33.043Z,35.12
2023-05-08T11:20:04.052Z,35.17
2023-05-08T11:22:34.669Z,33.56
2023-05-08T11:25:07.247Z,33.38
2023-05-08T11:27:39.764Z,34.76
2023-05-08T11:30:22.489Z,32.97
2023-05-08T11:33:14.877Z,33.69
2023-05-08T11:35:51.184Z,35.04
2023-05-08T11:38:22.947Z,35.23
2023-05-08T11:40:58.356Z,36.01
2023-05-08T11:43:42.112Z,35.51
2023-05-08T11:46:17.094Z,35.48
2023-05-08T11:48:46.612Z,36.20
2023-05-08T11:51:19.455Z,38.29
2023-05-08T11:53:49.619Z,36.98
2023-05-08T11:56:18.581Z,35.08
2023-05-08T11:58:47.863Z,36.22
2023-05-08T12:01:22.412Z,36.75
2023-05-08T12:04:01.428Z,36.16
2023-05-08T12:06:33.984Z,34.96
2023-05-08T12:09:05.032Z,33.40
2023-05-08T12:11:34.820Z,33.80
2023-05-08T12:14:03.752Z,33.71
2023-05-08T12:16:37.164Z,33.97
2023-05-08T12:19:06.415Z,36.07
2023-05-08T12:21:38.291Z,34.63
2023-05-08T12:24:13.008Z,35.96
2023-05-08T12:26:42.971Z,35.33
2023-05-08T12:29:11.926Z,34.42
2023-05-08T12:31:47.852Z,35.45
2023-05-08T12:34:18.073Z,35.91
2023-05-08T12:36:49.242Z,34.17
2023-05-08T12:39:20.490Z,35.28
2023-05-08T12:41:50.970Z,35.31
2023-05-08T12:44:22.080Z,34.94
2023-05-08T12:46:56.795Z,33.84
2023-05-08T12:49:28.860Z,33.97
2023-05-08T12:52:07.761Z,32.12
2023-05-08T12:54:37.887Z,34.81
2023-05-08T12:57:12.655Z,35.74
2023-05-08T12:59:42.191Z,36.11
2023-05-08T13:02:17.910Z,35.19
2023-05-08T13:04:49.369Z,34.02
2023-05-08T13:07:23.437Z,35.29
2023-05-08T13:10:09.529Z,35.61
2023-05-08T13:12:41.829Z,34.69
2023-05-08T13:15:13.667Z,35.14
2023-05-08T13:17:43.344Z,37.05
2023-05-08T13:20:14.902Z,35.31
2023-05-08T13:22:47.667Z,36.11
2023-05-08T13:25:16.523Z,35.31
2023-05-08T13:27:45.810Z,36.00
2023-05-08T13:30:26.443Z,36.51
2023-05-08T13:46:34.511Z,34.78
2023-05-08T13:49:06.273Z,33.89
2023-05-08T13:51:36.849Z,33.31
2023-05-08T13:54:09.831Z,33.65
2023-05-08T13:56:44.537Z,33.71
2023-05-08T13:59:16.160Z,35.03
2023-05-08T14:01:48.405Z,34.16
2023-05-08T14:04:21.919Z,34.39
2023-05-08T14:06:52.061Z,33.71
2023-05-08T14:09:26.037Z,34.22
2023-05-08T14:12:00.692Z,34.42
2023-05-08T14:14:39.826Z,34.14
2023-05-08T14:17:15.358Z,32.94
2023-05-08T14:19:54.434Z,32.65
2023-05-08T14:22:28.830Z,33.26
2023-05-08T14:25:03.582Z,32.66
2023-05-08T14:27:36.254Z,33.42
2023-05-08T14:30:09.335Z,33.23
2023-05-08T14:32:42.468Z,33.52
2023-05-08T14:35:12.467Z,31.46
2023-05-08T14:37:44.230Z,32.88
2023-05-08T14:40:13.878Z,33.85
2023-05-08T14:42:48.226Z,34.45
2023-05-08T14:45:24.311Z,34.73
2023-05-08T14:47:56.938Z,34.35
2023-05-08T14:50:27.690Z,34.12
2023-05-08T14:52:57.201Z,34.27
2023-05-08T14:55:26.327Z,33.33
2023-05-08T14:57:55.134Z,33.10
2023-05-08T15:00:25.994Z,33.14
2023-05-08T15:02:55.478Z,32.58
2023-05-08T15:05:28.454Z,32.64
2023-05-08T15:08:03.493Z,33.60
2023-05-08T15:10:32.600Z,34.06
2023-05-08T15:13:01.867Z,34.67
2023-05-08T15:15:32.959Z,34.24
2023-05-08T15:18:06.201Z,34.90
2023-05-08T15:20:36.204Z,35.50
2023-05-08T15:23:10.246Z,35.57
2023-05-08T15:25:39.903Z,34.68
2023-05-08T15:28:08.746Z,33.58
2023-05-08T15:30:39.642Z,33.13
2023-05-08T15:33:08.432Z,34.25
2023-05-08T15:35:37.012Z,33.24
2023-05-08T15:38:07.834Z,33.00
2023-05-08T15:40:36.616Z,34.33
2023-05-08T15:43:06.200Z,34.32
2023-05-08T15:45:35.607Z,34.18
2023-05-08T15:48:06.259Z,33.17
2023-05-08T15:50:35.663Z,33.09
2023-05-08T15:53:05.158Z,33.04
2023-05-08T15:55:33.730Z,33.12
2023-05-08T15:58:03.113Z,33.45
2023-05-08T16:00:43.965Z,33.57
2023-05-08T16:03:15.847Z,33.26
2023-05-08T16:05:44.764Z,32.86
2023-05-08T16:08:13.985Z,34.04
2023-05-08T16:10:43.949Z,35.77
2023-05-08T16:13:12.487Z,35.41
2023-05-08T16:15:41.638Z,34.50
2023-05-08T16:18:10.168Z,34.48
2023-05-08T16:20:42.193Z,34.77
2023-05-08T16:23:10.805Z,34.25
2023-05-08T16:25:39.548Z,33.49
2023-05-08T16:28:08.740Z,33.96
2023-05-08T16:30:40.615Z,33.83
2023-05-08T16:33:09.708Z,34.18
2023-05-08T16:35:40.769Z,34.32
2023-05-08T16:38:10.039Z,34.87
2023-05-08T16:40:39.038Z,36.19
2023-05-08T16:43:08.872Z,35.60
2023-05-08T16:45:37.732Z,34.96
2023-05-08T16:48:06.486Z,35.53
2023-05-08T16:50:35.228Z,36.89
2023-05-08T16:53:05.695Z,37.30
2023-05-08T16:55:34.188Z,36.97
2023-05-08T16:58:04.795Z,37.16
2023-05-08T17:00:34.294Z,37.47
2023-05-08T17:03:03.145Z,38.06
2023-05-08T17:05:32.458Z,37.86
2023-05-08T17:08:01.297Z,37.33
2023-05-08T17:10:31.472Z,37.44
2023-05-08T17:13:00.679Z,36.54
2023-05-08T17:15:29.068Z,37.50
2023-05-08T17:17:58.187Z,37.43
2023-05-08T17:20:41.078Z,37.62
2023-05-08T17:23:10.284Z,36.84
2023-05-08T17:25:47.167Z,38.10
2023-05-08T17:28:17.463Z,37.92
2023-05-08T17:30:47.696Z,37.27
2023-05-08T17:33:36.946Z,36.52
2023-05-08T17:36:11.966Z,38.26
2023-05-08T17:38:48.412Z,36.61
2023-05-08T17:41:22.281Z,37.33
2023-05-08T17:43:59.708Z,38.17
2023-05-08T17:46:28.572Z,38.78
2023-05-08T17:48:57.150Z,38.07
2023-05-08T17:51:27.596Z,38.53
2023-05-08T17:53:57.941Z,37.23
2023-05-08T17:57:14.323Z,38.56
2023-05-08T18:00:29.558Z,38.56
2023-05-08T18:03:05.950Z,39.92
2023-05-08T18:05:35.155Z,39.40
2023-05-08T18:08:07.283Z,38.76
2023-05-08T18:10:39.542Z,39.94
2023-05-08T18:13:13.103Z,39.53
2023-05-08T18:15:42.977Z,39.59
2023-05-08T18:18:14.176Z,40.19
2023-05-08T18:20:46.687Z,40.09
2023-05-08T18:23:16.781Z,40.88
2023-05-08T18:26:11.003Z,41.00
2023-05-08T18:28:42.653Z,41.34
2023-05-08T18:31:16.120Z,41.49
2023-05-08T18:33:47.612Z,41.99
2023-05-08T18:36:28.734Z,41.68
2023-05-08T18:38:58.411Z,42.65
2023-05-08T18:41:35.532Z,42.62
2023-05-08T18:44:14.947Z,43.24
2023-05-08T18:46:47.332Z,42.96
2023-05-08T18:49:23.722Z,43.49
2023-05-08T18:51:56.558Z,43.89
2023-05-08T18:54:28.841Z,44.23
2023-05-08T18:56:59.948Z,44.97
2023-05-08T18:59:37.951Z,45.68
2023-05-08T19:02:17.639Z,45.52
2023-05-08T19:05:08.620Z,45.45
2023-05-08T19:07:44.043Z,46.11
2023-05-08T19:10:27.339Z,45.83
2023-05-08T19:13:02.587Z,46.51
2023-05-08T19:15:41.054Z,46.87
2023-05-08T19:18:24.089Z,46.77
2023-05-08T19:20:55.418Z,46.81
2023-05-08T19:23:35.584Z,47.04
2023-05-08T19:26:18.807Z,46.77
2023-05-08T19:28:50.997Z,47.61
2023-05-08T19:31:20.404Z,47.62
2023-05-08T19:33:53.803Z,47.70
2023-05-08T19:36:26.746Z,47.82
2023-05-08T19:38:56.388Z,48.10
2023-05-08T19:41:34.327Z,48.23
2023-05-08T19:44:12.234Z,48.33
2023-05-08T19:46:50.319Z,48.55
2023-05-08T19:49:29.300Z,48.69
2023-05-08T19:52:13.425Z,48.57
2023-05-08T19:54:44.255Z,48.69
2023-05-08T19:57:24.928Z,48.89
2023-05-08T20:00:00.912Z,49.50
2023-05-08T20:02:31.645Z,50.00
2023-05-08T20:05:21.263Z,49.95
2023-05-08T20:07:55.317Z,50.63
2023-05-08T20:10:25.150Z,50.80
2023-05-08T20:12:54.418Z,51.20
2023-05-08T20:15:25.100Z,51.32
2023-05-08T20:17:56.151Z,51.64
2023-05-08T20:20:28.052Z,51.79
2023-05-08T20:22:58.945Z,52.72
2023-05-08T20:25:28.892Z,53.04
2023-05-08T20:28:01.684Z,53.02
2023-05-08T20:33:32.645Z,53.18
2023-05-08T20:36:12.953Z,52.94
2023-05-08T20:38:43.286Z,53.27
2023-05-08T20:41:12.456Z,53.42
2023-05-08T20:43:45.827Z,54.19
2023-05-08T20:46:21.179Z,54.30
2023-05-08T20:49:17.403Z,54.28
2023-05-08T20:51:51.416Z,54.71
2023-05-08T20:54:22.004Z,54.37
2023-05-08T20:56:51.790Z,54.78
2023-05-08T20:59:27.176Z,54.68
2023-05-08T21:01:56.513Z,55.25
2023-05-08T21:04:25.963Z,55.29
2023-05-08T21:06:55.204Z,56.30
2023-05-08T21:09:26.766Z,57.03
2023-05-08T21:11:57.891Z,56.99
2023-05-08T21:14:30.504Z,57.01
2023-05-08T21:17:10.635Z,57.18
2023-05-08T21:19:40.524Z,57.30
2023-05-08T21:22:14.137Z,56.40
2023-05-08T21:24:50.156Z,56.50
2023-05-08T21:27:19.964Z,56.80
2023-05-08T21:29:50.328Z,57.00
2023-05-08T21:32:20.092Z,56.89
2023-05-08T21:34:49.709Z,56.96
2023-05-08T21:37:23.011Z,57.31
2023-05-08T21:39:54.492Z,58.18
2023-05-08T21:42:24.728Z,58.56
2023-05-08T21:44:56.450Z,58.75
2023-05-08T21:47:31.781Z,58.49
2023-05-08T21:50:03.881Z,59.07
2023-05-08T21:52:34.673Z,59.30
2023-05-08T21:55:11.113Z,59.46
2023-05-08T21:57:40.890Z,59.76
2023-05-08T22:00:15.725Z,59.78
2023-05-08T22:02:45.311Z,59.95
2023-05-08T22:05:20.466Z,60.71
2023-05-08T22:07:51.093Z,60.04
2023-05-08T22:10:25.544Z,60.82
2023-05-08T22:13:02.202Z,61.22
2023-05-08T22:15:35.559Z,61.19
2023-05-08T22:18:08.521Z,60.87
2023-05-08T22:20:42.839Z,61.05
2023-05-08T22:23:15.041Z,61.55
2023-05-08T22:25:46.728Z,61.76
2023-05-08T22:28:16.662Z,60.88
2023-05-08T22:30:49.163Z,61.41
2023-05-08T22:33:22.762Z,61.17
2023-05-08T22:35:52.241Z,61.43
2023-05-08T22:38:22.090Z,61.68
2023-05-08T22:41:00.683Z,61.73
2023-05-08T22:43:38.200Z,61.71
2023-05-08T22:46:08.348Z,61.35
2023-05-08T22:48:38.604Z,61.64
2023-05-08T22:51:14.525Z,61.55
2023-05-08T22:53:44.239Z,61.35
2023-05-08T22:56:14.963Z,61.23
2023-05-08T22:58:52.139Z,61.26
2023-05-08T23:01:25.589Z,61.69
2023-05-08T23:03:55.592Z,61.59
2023-05-08T23:06:30.198Z,61.81
2023-05-08T23:09:01.467Z,61.79
2023-05-08T23:11:32.018Z,61.84
2023-05-08T23:14:08.484Z,61.96
2023-05-08T23:16:37.528Z,61.82
2023-05-08T23:19:17.959Z,62.19
2023-05-08T23:21:49.895Z,61.95
2023-05-08T23:24:20.949Z,61.86
2023-05-08T23:27:03.646Z,62.04
2023-05-08T23:29:34.130Z,62.25
2023-05-08T23:32:05.324Z,62.22
2023-05-08T23:34:35.447Z,61.87
2023-05-08T23:37:04.455Z,62.10
2023-05-08T23:39:39.573Z,61.63
2023-05-08T23:42:12.851Z,61.71
2023-05-08T23:44:42.232Z,61.47
2023-05-08T23:47:13.992Z,61.57
2023-05-08T23:49:43.369Z,61.61
2023-05-08T23:52:12.770Z,61.47
2023-05-08T23:54:45.029Z,61.06
2023-05-08T23:57:18.320Z,61.21
2023-05-08T23:59:52.838Z,61.19
